createdAt,value
2023-06-16T00:01:36.706Z,2.45
2023-06-16T00:03:39.228Z,2.78
2023-06-16T00:05:43.272Z,2.83
2023-06-16T00:07:49.654Z,3.05
2023-06-16T00:09:52.037Z,3.28
2023-06-16T00:11:55.657Z,3.22
2023-06-16T00:13:58.147Z,3.35
2023-06-16T00:16:00.184Z,3.03
2023-06-16T00:18:02.741Z,3.25
2023-06-16T00:20:08.235Z,2.75
2023-06-16T00:22:12.028Z,3.17
2023-06-16T00:24:15.626Z,2.92
2023-06-16T00:26:17.738Z,2.80
2023-06-16T00:28:20.521Z,3.63
2023-06-16T00:30:22.738Z,3.00
2023-06-16T00:32:24.947Z,2.92
2023-06-16T00:34:27.061Z,3.10
2023-06-16T00:36:29.697Z,3.13
2023-06-16T00:38:31.777Z,3.03
2023-06-16T00:40:35.404Z,2.67
2023-06-16T00:42:37.613Z,2.65
2023-06-16T00:44:39.772Z,2.67
2023-06-16T00:46:42.338Z,2.90
2023-06-16T00:48:44.460Z,3.17
2023-06-16T00:50:46.793Z,3.08
2023-06-16T00:52:48.865Z,3.20
2023-06-16T00:54:51.462Z,3.63
2023-06-16T00:56:55.125Z,2.92
2023-06-16T00:58:57.910Z,2.63
2023-06-16T01:01:00.648Z,3.03
2023-06-16T01:03:05.262Z,2.97
2023-06-16T01:05:09.051Z,2.95
2023-06-16T01:07:14.548Z,2.88
2023-06-16T01:09:22.636Z,3.30
2023-06-16T01:11:35.069Z,3.13
2023-06-16T01:13:49.871Z,2.70
2023-06-16T01:15:52.939Z,2.83
2023-06-16T01:17:58.935Z,2.80
2023-06-16T01:20:10.044Z,3.17
2023-06-16T01:22:17.725Z,2.70
2023-06-16T01:24:25.428Z,2.70
2023-06-16T01:26:29.677Z,2.90
2023-06-16T01:28:33.982Z,2.47
2023-06-16T01:30:38.004Z,2.30
2023-06-16T01:32:41.277Z,2.83
2023-06-16T01:34:44.312Z,3.08
2023-06-16T01:36:47.124Z,2.90
2023-06-16T01:38:50.087Z,2.90
2023-06-16T01:40:55.372Z,2.90
2023-06-16T01:42:58.430Z,3.00
2023-06-16T01:45:00.959Z,2.67
2023-06-16T01:47:06.938Z,2.67
2023-06-16T01:49:09.673Z,2.20
2023-06-16T01:51:11.893Z,2.40
2023-06-16T01:53:14.044Z,3.17
2023-06-16T01:55:16.092Z,2.65
2023-06-16T01:57:19.498Z,2.60
2023-06-16T01:59:21.638Z,2.70
2023-06-16T02:01:28.536Z,2.60
2023-06-16T02:03:35.813Z,2.38
2023-06-16T02:05:41.789Z,2.67
2023-06-16T02:07:45.479Z,2.47
2023-06-16T02:09:49.320Z,2.75
2023-06-16T02:11:53.317Z,2.75
2023-06-16T02:13:57.104Z,3.10
2023-06-16T02:15:59.454Z,2.47
2023-06-16T02:18:03.333Z,3.40
2023-06-16T02:20:07.838Z,2.90
2023-06-16T02:22:10.002Z,3.20
2023-06-16T02:24:12.224Z,3.13
2023-06-16T02:26:14.357Z,2.88
2023-06-16T02:28:16.483Z,2.90
2023-06-16T02:30:20.374Z,2.95
2023-06-16T02:32:22.711Z,3.10
2023-06-16T02:34:24.836Z,3.15
2023-06-16T02:36:27.885Z,3.15
2023-06-16T02:38:31.160Z,2.97
2023-06-16T02:40:33.267Z,2.75
2023-06-16T02:42:35.631Z,3.17
2023-06-16T02:44:37.646Z,3.42
2023-06-16T02:46:41.263Z,2.60
2023-06-16T02:48:43.429Z,2.60
2023-06-16T02:50:45.527Z,2.80
2023-06-16T02:52:49.737Z,2.97
2023-06-16T02:54:52.021Z,3.42
2023-06-16T02:56:54.178Z,2.70
2023-06-16T02:58:56.701Z,3.17
2023-06-16T03:00:58.901Z,2.58
2023-06-16T03:03:02.473Z,2.75
2023-06-16T03:05:05.465Z,3.42
2023-06-16T03:07:07.596Z,2.75
2023-06-16T03:09:10.228Z,3.03
2023-06-16T03:11:12.378Z,3.08
2023-06-16T03:13:14.551Z,3.03
2023-06-16T03:15:16.746Z,2.92
2023-06-16T03:17:21.914Z,3.05
2023-06-16T03:19:25.558Z,3.25
2023-06-16T03:21:28.292Z,3.15
2023-06-16T03:23:30.392Z,2.75
2023-06-16T03:25:32.851Z,2.97
2023-06-16T03:27:34.840Z,3.22
2023-06-16T03:29:37.956Z,2.80
2023-06-16T03:31:40.217Z,3.33
2023-06-16T03:33:42.189Z,3.00
2023-06-16T03:35:45.845Z,3.03
2023-06-16T03:37:48.038Z,3.40
2023-06-16T03:39:50.050Z,3.30
2023-06-16T03:41:52.976Z,3.25
2023-06-16T03:43:55.014Z,2.90
2023-06-16T03:45:57.115Z,4.03
2023-06-16T03:47:59.251Z,3.10
2023-06-16T03:50:02.239Z,3.40
2023-06-16T03:52:06.846Z,3.20
2023-06-16T03:54:09.065Z,3.05
2023-06-16T03:56:13.422Z,3.03
2023-06-16T03:58:18.386Z,2.88
2023-06-16T04:02:23.185Z,3.95
2023-06-16T04:04:26.681Z,3.83
2023-06-16T04:06:28.682Z,4.05
2023-06-16T04:08:32.101Z,3.75
2023-06-16T04:10:34.498Z,3.58
2023-06-16T04:12:36.705Z,3.65
2023-06-16T04:14:39.198Z,3.63
2023-06-16T04:16:44.532Z,3.40
2023-06-16T04:18:49.722Z,3.22
2023-06-16T04:20:52.172Z,3.08
2023-06-16T04:22:54.395Z,3.40
2023-06-16T04:24:57.713Z,4.20
2023-06-16T04:26:59.938Z,3.80
2023-06-16T04:29:04.625Z,4.20
2023-06-16T04:31:07.382Z,3.70
2023-06-16T04:33:09.695Z,4.05
2023-06-16T04:35:13.101Z,5.07
2023-06-16T04:37:15.529Z,3.70
2023-06-16T04:39:18.103Z,3.67
2023-06-16T04:41:21.467Z,3.65
2023-06-16T04:43:23.445Z,3.60
2023-06-16T04:45:26.067Z,3.67
2023-06-16T04:47:28.379Z,4.00
2023-06-16T04:49:30.430Z,3.25
2023-06-16T04:51:34.855Z,3.92
2023-06-16T04:53:37.825Z,3.63
2023-06-16T04:55:39.943Z,3.95
2023-06-16T04:57:43.540Z,4.15
2023-06-16T04:59:45.524Z,4.22
2023-06-16T05:01:47.509Z,3.63
2023-06-16T05:03:49.619Z,3.33
2023-06-16T05:05:51.846Z,4.25
2023-06-16T05:07:53.878Z,3.80
2023-06-16T05:09:56.065Z,4.72
2023-06-16T05:11:58.084Z,3.97
2023-06-16T05:14:01.513Z,4.38
2023-06-16T05:16:03.889Z,4.90
2023-06-16T05:18:06.825Z,4.50
2023-06-16T05:20:10.177Z,4.18
2023-06-16T05:22:12.171Z,4.30
2023-06-16T05:24:14.498Z,3.95
2023-06-16T05:26:16.548Z,4.45
2023-06-16T05:28:18.555Z,4.75
2023-06-16T05:30:22.083Z,4.28
2023-06-16T05:32:24.378Z,4.43
2023-06-16T05:34:26.605Z,3.95
2023-06-16T05:36:30.500Z,4.55
2023-06-16T05:38:32.758Z,3.95
2023-06-16T05:40:34.725Z,5.53
2023-06-16T05:42:36.884Z,4.28
2023-06-16T05:44:39.169Z,4.20
2023-06-16T05:46:42.508Z,4.18
2023-06-16T05:48:45.495Z,4.30
2023-06-16T05:50:48.546Z,4.28
2023-06-16T05:52:50.758Z,4.45
2023-06-16T05:54:52.785Z,4.20
2023-06-16T05:56:54.723Z,3.85
2023-06-16T05:58:56.716Z,4.75
2023-06-16T06:00:58.676Z,4.15
2023-06-16T06:03:02.296Z,4.55
2023-06-16T06:05:05.397Z,3.92
2023-06-16T06:07:07.500Z,4.78
2023-06-16T06:09:09.538Z,4.72
2023-06-16T06:11:12.546Z,4.68
2023-06-16T06:13:14.572Z,4.50
2023-06-16T06:15:18.897Z,5.65
2023-06-16T06:17:21.084Z,4.53
2023-06-16T06:19:25.385Z,4.88
2023-06-16T06:21:27.512Z,4.70
2023-06-16T06:23:29.557Z,5.03
2023-06-16T06:25:31.859Z,5.00
2023-06-16T06:27:33.931Z,5.30
2023-06-16T06:29:36.129Z,6.00
2023-06-16T06:31:38.107Z,8.15
2023-06-16T06:33:40.692Z,5.13
2023-06-16T06:35:44.112Z,5.70
2023-06-16T06:37:46.256Z,5.43
2023-06-16T06:39:49.221Z,5.72
2023-06-16T06:41:51.471Z,5.65
2023-06-16T06:43:53.838Z,5.05
2023-06-16T06:45:56.011Z,4.28
2023-06-16T06:47:58.115Z,4.40
2023-06-16T06:50:00.671Z,4.95
2023-06-16T06:52:04.486Z,5.10
2023-06-16T06:54:08.343Z,5.13
2023-06-16T06:56:10.491Z,5.45
2023-06-16T06:58:12.543Z,4.40
2023-06-16T07:00:15.852Z,5.97
2023-06-16T07:02:18.356Z,5.28
2023-06-16T07:04:21.036Z,5.60
2023-06-16T07:06:23.254Z,6.13
2023-06-16T07:08:26.874Z,6.15
2023-06-16T07:10:30.984Z,6.95
2023-06-16T07:12:33.221Z,7.80
2023-06-16T07:14:35.527Z,6.00
2023-06-16T07:16:37.666Z,5.70
2023-06-16T07:18:40.072Z,5.30
2023-06-16T07:20:42.240Z,4.85
2023-06-16T07:22:46.397Z,4.97
2023-06-16T07:24:49.879Z,5.55
2023-06-16T07:26:52.409Z,5.90
2023-06-16T07:28:54.542Z,5.30
2023-06-16T07:30:57.128Z,5.60
2023-06-16T07:32:59.371Z,11.15
2023-06-16T07:35:01.551Z,7.60
2023-06-16T07:37:03.760Z,5.53
2023-06-16T07:39:05.910Z,5.10
2023-06-16T07:41:09.449Z,5.57
2023-06-16T07:43:11.452Z,4.60
2023-06-16T07:45:13.771Z,5.13
2023-06-16T07:47:16.106Z,4.90
2023-06-16T07:49:18.358Z,5.82
2023-06-16T07:51:21.907Z,5.00
2023-06-16T07:53:23.984Z,5.22
2023-06-16T07:55:26.119Z,4.95
2023-06-16T07:57:31.336Z,5.18
2023-06-16T07:59:33.938Z,4.90
2023-06-16T08:01:36.119Z,4.93
2023-06-16T08:03:38.593Z,5.80
2023-06-16T08:05:41.673Z,4.50
2023-06-16T08:07:44.773Z,4.78
2023-06-16T08:09:46.780Z,6.75
2023-06-16T08:11:48.761Z,5.03
2023-06-16T08:13:52.266Z,5.22
2023-06-16T08:15:54.860Z,4.72
2023-06-16T08:17:57.063Z,4.55
2023-06-16T08:19:59.153Z,5.07
2023-06-16T08:22:01.496Z,5.03
2023-06-16T08:24:03.632Z,4.95
2023-06-16T08:26:06.520Z,4.70
2023-06-16T08:28:09.004Z,4.35
2023-06-16T08:30:16.701Z,4.55
2023-06-16T08:32:19.532Z,4.63
2023-06-16T08:34:21.831Z,5.47
2023-06-16T08:36:25.815Z,5.13
2023-06-16T08:38:28.460Z,4.67
2023-06-16T08:40:31.554Z,4.30
2023-06-16T08:42:37.262Z,4.75
2023-06-16T08:44:41.347Z,4.70
2023-06-16T08:46:45.341Z,4.22
2023-06-16T08:48:47.449Z,4.63
2023-06-16T08:50:49.948Z,5.03
2023-06-16T08:52:54.194Z,4.20
2023-06-16T08:55:02.793Z,4.82
2023-06-16T08:57:10.431Z,4.72
2023-06-16T08:59:13.076Z,4.68
2023-06-16T09:01:18.051Z,4.13
2023-06-16T09:03:22.772Z,4.32
2023-06-16T09:07:28.346Z,4.22
2023-06-16T09:09:30.772Z,4.03
2023-06-16T09:11:33.078Z,4.15
2023-06-16T09:13:35.282Z,3.88
2023-06-16T09:15:37.887Z,4.70
2023-06-16T09:17:41.874Z,3.70
2023-06-16T09:19:48.770Z,5.23
2023-06-16T09:21:55.014Z,4.78
2023-06-16T09:24:01.670Z,4.00
2023-06-16T09:26:12.416Z,4.07
2023-06-16T09:28:14.576Z,3.78
2023-06-16T09:30:19.928Z,4.47
2023-06-16T09:32:22.485Z,4.82
2023-06-16T09:34:33.278Z,4.10
2023-06-16T09:36:40.956Z,4.65
2023-06-16T09:38:43.768Z,5.47
2023-06-16T09:40:46.100Z,7.15
2023-06-16T09:42:51.280Z,6.10
2023-06-16T09:44:53.595Z,7.53
2023-06-16T09:46:56.010Z,4.90
2023-06-16T09:48:58.299Z,6.22
2023-06-16T09:51:00.766Z,3.78
2023-06-16T09:53:07.479Z,4.20
2023-06-16T09:55:11.415Z,3.83
2023-06-16T09:57:16.773Z,2.63
2023-06-16T09:59:19.226Z,3.58
2023-06-16T10:01:23.753Z,3.88
2023-06-16T10:03:28.201Z,3.75
2023-06-16T10:05:35.302Z,2.92
2023-06-16T10:07:38.518Z,4.63
2023-06-16T10:10:02.898Z,4.10
2023-06-16T10:12:07.655Z,3.60
2023-06-16T10:14:10.681Z,4.07
2023-06-16T10:16:14.931Z,3.15
2023-06-16T10:18:18.401Z,3.72
2023-06-16T10:20:24.955Z,4.80
2023-06-16T10:22:27.171Z,4.22
2023-06-16T10:24:29.381Z,4.00
2023-06-16T10:26:33.262Z,3.50
2023-06-16T10:28:39.254Z,3.20
2023-06-16T10:30:42.570Z,3.60
2023-06-16T10:32:48.430Z,3.45
2023-06-16T10:34:58.187Z,3.53
2023-06-16T10:37:00.349Z,4.65
2023-06-16T10:39:10.541Z,3.55
2023-06-16T10:41:16.010Z,3.60
2023-06-16T10:43:26.572Z,2.95
2023-06-16T10:45:30.110Z,3.38
2023-06-16T10:47:33.500Z,4.03
2023-06-16T10:49:45.006Z,3.47
2023-06-16T10:51:51.764Z,3.60
2023-06-16T10:53:56.786Z,3.67
2023-06-16T10:56:08.631Z,3.30
2023-06-16T10:58:30.568Z,3.53
2023-06-16T11:00:34.268Z,3.80
2023-06-16T11:02:36.704Z,2.92
2023-06-16T11:04:38.715Z,3.22
2023-06-16T11:07:26.403Z,4.50
2023-06-16T11:09:36.629Z,4.22
2023-06-16T11:11:40.592Z,3.80
2023-06-16T11:13:44.060Z,3.67
2023-06-16T11:15:46.694Z,3.33
2023-06-16T11:17:49.244Z,4.03
2023-06-16T11:19:52.576Z,4.05
2023-06-16T11:21:54.584Z,7.00
2023-06-16T11:24:08.406Z,3.80
2023-06-16T11:26:12.125Z,4.30
2023-06-16T11:28:14.825Z,4.38
2023-06-16T11:30:18.613Z,4.10
2023-06-16T11:32:23.938Z,4.10
2023-06-16T11:34:26.616Z,3.88
2023-06-16T11:36:28.734Z,4.05
2023-06-16T11:38:31.006Z,4.13
2023-06-16T11:40:33.109Z,3.65
2023-06-16T11:42:35.293Z,3.95
2023-06-16T11:44:37.269Z,4.88
2023-06-16T11:46:40.829Z,4.10
2023-06-16T11:48:43.124Z,4.50
2023-06-16T11:50:45.141Z,4.07
2023-06-16T11:52:47.879Z,4.22
2023-06-16T11:54:50.047Z,3.90
2023-06-16T11:56:52.190Z,3.97
2023-06-16T11:58:54.624Z,4.35
2023-06-16T12:01:01.494Z,3.95
2023-06-16T12:03:05.908Z,4.10
2023-06-16T12:05:17.258Z,4.07
2023-06-16T12:07:20.209Z,3.75
2023-06-16T12:09:22.303Z,3.60
2023-06-16T12:11:29.323Z,3.67
2023-06-16T12:13:35.833Z,3.45
2023-06-16T12:15:37.940Z,3.67
2023-06-16T12:17:40.716Z,4.03
2023-06-16T12:19:45.972Z,3.90
2023-06-16T12:21:51.470Z,11.75
2023-06-16T12:23:55.302Z,4.53
2023-06-16T12:25:57.593Z,7.20
2023-06-16T12:28:03.054Z,3.80
2023-06-16T12:30:06.388Z,3.85
2023-06-16T12:32:09.220Z,3.55
2023-06-16T12:34:11.256Z,3.50
2023-06-16T12:36:14.980Z,3.65
2023-06-16T12:38:30.192Z,3.58
2023-06-16T12:42:36.836Z,3.72
2023-06-16T12:44:43.287Z,4.03
2023-06-16T12:46:45.878Z,4.40
2023-06-16T12:48:48.198Z,3.47
2023-06-16T12:50:50.267Z,3.78
2023-06-16T12:52:53.699Z,3.30
2023-06-16T12:54:57.153Z,3.63
2023-06-16T12:56:59.225Z,3.95
2023-06-16T12:59:01.235Z,3.63
2023-06-16T13:01:03.295Z,4.10
2023-06-16T13:03:05.680Z,3.50
2023-06-16T13:05:08.260Z,3.33
2023-06-16T13:07:10.389Z,4.30
2023-06-16T13:09:14.119Z,3.17
2023-06-16T13:11:16.158Z,3.60
2023-06-16T13:13:18.427Z,3.70
2023-06-16T13:15:20.640Z,3.60
2023-06-16T13:17:22.901Z,3.70
2023-06-16T13:19:24.981Z,3.67
2023-06-16T13:21:27.024Z,3.95
2023-06-16T13:23:30.394Z,4.32
2023-06-16T13:25:34.738Z,4.65
2023-06-16T13:27:36.724Z,3.42
2023-06-16T13:29:38.794Z,3.35
2023-06-16T13:31:40.942Z,3.78
2023-06-16T13:33:43.536Z,4.30
2023-06-16T13:35:45.622Z,3.47
2023-06-16T13:37:48.218Z,3.67
2023-06-16T13:39:50.468Z,3.42
2023-06-16T13:41:53.941Z,3.35
2023-06-16T13:43:56.093Z,3.47
2023-06-16T13:45:58.107Z,3.70
2023-06-16T13:48:00.295Z,3.67
2023-06-16T13:50:02.393Z,3.65
2023-06-16T13:52:05.198Z,3.42
2023-06-16T13:54:07.209Z,3.30
2023-06-16T13:56:09.263Z,3.33
2023-06-16T13:58:12.714Z,3.17
2023-06-16T14:00:15.829Z,3.22
2023-06-16T14:02:18.002Z,3.15
2023-06-16T14:04:20.046Z,3.58
2023-06-16T14:06:22.046Z,3.75
2023-06-16T14:08:24.607Z,3.47
2023-06-16T14:10:26.791Z,3.63
2023-06-16T14:12:28.857Z,3.55
2023-06-16T14:14:32.145Z,3.63
2023-06-16T14:16:35.798Z,3.10
2023-06-16T14:18:38.053Z,3.30
2023-06-16T14:20:40.353Z,3.42
2023-06-16T14:22:42.810Z,2.92
2023-06-16T14:24:45.046Z,3.58
2023-06-16T14:26:47.124Z,3.10
2023-06-16T14:28:49.222Z,3.30
2023-06-16T14:30:52.720Z,2.97
2023-06-16T14:32:54.852Z,3.80
2023-06-16T14:34:56.918Z,3.60
2023-06-16T14:36:59.248Z,3.20
2023-06-16T14:39:01.344Z,3.97
2023-06-16T14:41:03.433Z,2.88
2023-06-16T14:43:06.578Z,3.28
2023-06-16T14:45:10.764Z,3.42
2023-06-16T14:47:14.494Z,3.53
2023-06-16T14:49:16.676Z,3.50
2023-06-16T14:51:18.756Z,3.15
2023-06-16T14:53:20.820Z,3.70
2023-06-16T14:55:24.245Z,3.22
2023-06-16T14:57:28.167Z,3.60
2023-06-16T14:59:30.321Z,3.70
2023-06-16T15:01:32.404Z,3.03
2023-06-16T15:03:36.091Z,3.20
2023-06-16T15:05:38.255Z,3.78
2023-06-16T15:07:40.519Z,3.58
2023-06-16T15:09:42.709Z,3.58
2023-06-16T15:11:46.015Z,5.32
2023-06-16T15:13:48.318Z,3.85
2023-06-16T15:15:50.617Z,3.30
2023-06-16T15:17:52.856Z,3.20
2023-06-16T15:19:56.492Z,3.53
2023-06-16T15:21:58.601Z,3.53
2023-06-16T15:24:00.976Z,3.42
2023-06-16T15:26:03.163Z,3.38
2023-06-16T15:28:12.223Z,3.13
2023-06-16T15:30:14.697Z,3.00
2023-06-16T15:32:16.785Z,3.00
2023-06-16T15:34:18.822Z,3.17
2023-06-16T15:36:22.368Z,3.10
2023-06-16T15:38:24.395Z,3.35
2023-06-16T15:40:26.384Z,2.85
2023-06-16T15:42:28.349Z,3.10
2023-06-16T15:44:30.636Z,3.47
2023-06-16T15:46:32.852Z,3.28
2023-06-16T15:48:34.918Z,3.35
2023-06-16T15:50:36.995Z,3.60
2023-06-16T15:52:40.393Z,3.60
2023-06-16T15:54:42.385Z,3.20
2023-06-16T15:56:44.758Z,3.05
2023-06-16T15:58:46.717Z,3.03
2023-06-16T16:00:48.988Z,3.33
2023-06-16T16:02:51.261Z,3.70
2023-06-16T16:04:53.458Z,3.30
2023-06-16T16:06:56.504Z,3.38
2023-06-16T16:08:59.892Z,3.47
2023-06-16T16:11:02.024Z,3.53
2023-06-16T16:13:04.116Z,4.10
2023-06-16T16:15:08.801Z,3.10
2023-06-16T16:17:11.522Z,3.25
2023-06-16T16:19:13.638Z,3.28
2023-06-16T16:21:16.650Z,3.20
2023-06-16T16:23:18.741Z,3.42
2023-06-16T16:25:22.283Z,3.45
2023-06-16T16:27:24.460Z,3.40
2023-06-16T16:29:29.432Z,3.60
2023-06-16T16:31:31.629Z,3.40
2023-06-16T16:33:33.641Z,3.30
2023-06-16T16:35:35.669Z,3.50
2023-06-16T16:37:37.666Z,3.33
2023-06-16T16:39:39.767Z,3.33
2023-06-16T16:41:43.825Z,3.00
2023-06-16T16:43:45.890Z,2.88
2023-06-16T16:45:48.307Z,3.47
2023-06-16T16:47:51.027Z,3.80
2023-06-16T16:49:53.468Z,3.13
2023-06-16T16:51:56.030Z,3.53
2023-06-16T16:53:58.116Z,3.10
2023-06-16T16:56:00.248Z,3.70
2023-06-16T16:58:03.819Z,3.45
2023-06-16T17:00:07.328Z,3.17
2023-06-16T17:02:09.410Z,3.22
2023-06-16T17:04:11.636Z,3.33
2023-06-16T17:06:13.840Z,3.50
2023-06-16T17:08:16.047Z,3.40
2023-06-16T17:10:18.395Z,3.28
2023-06-16T17:12:20.831Z,3.80
2023-06-16T17:14:25.489Z,3.05
2023-06-16T17:18:29.826Z,3.55
2023-06-16T17:20:32.126Z,3.60
2023-06-16T17:22:34.220Z,3.25
2023-06-16T17:24:36.526Z,4.47
2023-06-16T17:26:38.693Z,3.90
2023-06-16T17:28:40.755Z,3.85
2023-06-16T17:30:44.132Z,3.55
2023-06-16T17:32:46.391Z,3.00
2023-06-16T17:34:48.586Z,3.42
2023-06-16T17:36:50.659Z,3.42
2023-06-16T17:38:53.781Z,3.63
2023-06-16T17:40:58.209Z,3.10
2023-06-16T17:43:01.405Z,3.47
2023-06-16T17:45:04.585Z,3.03
2023-06-16T17:47:08.421Z,3.40
2023-06-16T17:49:10.638Z,3.77
2023-06-16T17:51:12.594Z,2.83
2023-06-16T17:53:14.779Z,3.72
2023-06-16T17:55:17.133Z,3.35
2023-06-16T17:57:19.265Z,3.55
2023-06-16T17:59:21.254Z,3.10
2023-06-16T18:01:23.356Z,3.00
2023-06-16T18:03:26.769Z,3.83
2023-06-16T18:05:28.883Z,3.30
2023-06-16T18:07:31.122Z,3.05
2023-06-16T18:09:33.240Z,3.20
2023-06-16T18:11:35.694Z,3.30
2023-06-16T18:13:37.743Z,3.25
2023-06-16T18:15:40.326Z,3.50
2023-06-16T18:17:42.499Z,3.80
2023-06-16T18:19:45.984Z,3.08
2023-06-16T18:21:48.158Z,3.50
2023-06-16T18:23:50.231Z,3.13
2023-06-16T18:25:53.561Z,3.60
2023-06-16T18:27:57.162Z,3.60
2023-06-16T18:29:59.472Z,3.58
2023-06-16T18:32:02.995Z,2.72
2023-06-16T18:34:05.546Z,3.33
2023-06-16T18:36:09.010Z,3.10
2023-06-16T18:38:11.875Z,3.35
2023-06-16T18:40:14.844Z,3.00
2023-06-16T18:42:17.769Z,3.53
2023-06-16T18:44:20.218Z,3.53
2023-06-16T18:46:22.272Z,3.67
2023-06-16T18:48:24.463Z,3.22
2023-06-16T18:50:26.639Z,3.70
2023-06-16T18:52:30.066Z,3.28
2023-06-16T18:54:32.185Z,3.65
2023-06-16T18:56:36.475Z,3.47
2023-06-16T18:58:39.273Z,3.25
2023-06-16T19:00:41.283Z,3.85
2023-06-16T19:02:43.553Z,3.45
2023-06-16T19:04:49.042Z,3.72
2023-06-16T19:06:51.503Z,3.55
2023-06-16T19:08:57.593Z,3.42
2023-06-16T19:10:59.624Z,3.40
2023-06-16T19:13:01.910Z,3.28
2023-06-16T19:15:04.858Z,3.72
2023-06-16T19:17:07.780Z,3.53
2023-06-16T19:19:09.916Z,3.53
2023-06-16T19:21:12.501Z,3.13
2023-06-16T19:23:17.106Z,2.97
2023-06-16T19:25:20.617Z,3.30
2023-06-16T19:27:22.614Z,3.28
2023-06-16T19:29:24.872Z,3.17
2023-06-16T19:31:27.643Z,3.70
2023-06-16T19:33:30.487Z,3.40
2023-06-16T19:35:32.744Z,3.55
2023-06-16T19:37:36.095Z,3.90
2023-06-16T19:39:38.201Z,3.95
2023-06-16T19:41:41.649Z,3.83
2023-06-16T19:43:43.770Z,3.53
2023-06-16T19:45:45.825Z,3.97
2023-06-16T19:47:47.976Z,3.63
2023-06-16T19:49:50.933Z,3.97
2023-06-16T19:51:53.804Z,3.70
2023-06-16T19:53:55.828Z,4.60
2023-06-16T19:56:01.662Z,4.15
2023-06-16T19:58:05.119Z,3.55
2023-06-16T20:00:09.839Z,3.92
2023-06-16T20:02:11.903Z,3.75
2023-06-16T20:04:14.001Z,4.32
2023-06-16T20:06:16.098Z,3.88
2023-06-16T20:08:18.208Z,3.60
2023-06-16T20:10:20.746Z,3.90
2023-06-16T20:12:22.867Z,3.78
2023-06-16T20:14:26.523Z,4.00
2023-06-16T20:16:28.729Z,4.22
2023-06-16T20:18:33.475Z,4.80
2023-06-16T20:22:38.491Z,4.30
2023-06-16T20:24:40.698Z,4.20
2023-06-16T20:26:42.859Z,4.78
2023-06-16T20:28:44.913Z,4.60
2023-06-16T20:30:48.792Z,4.35
2023-06-16T20:32:51.033Z,4.77
2023-06-16T20:34:56.985Z,7.53
2023-06-16T20:37:00.131Z,5.60
2023-06-16T20:39:02.407Z,5.28
2023-06-16T20:41:06.043Z,5.20
2023-06-16T20:43:08.228Z,5.20
2023-06-16T20:45:10.894Z,5.13
2023-06-16T20:47:14.583Z,5.57
2023-06-16T20:49:17.751Z,5.30
2023-06-16T20:51:19.833Z,5.78
2023-06-16T20:53:22.145Z,4.88
2023-06-16T20:55:24.547Z,5.65
2023-06-16T20:57:27.700Z,5.32
2023-06-16T20:59:29.924Z,6.10
2023-06-16T21:01:40.813Z,8.38
2023-06-16T21:03:44.687Z,8.63
2023-06-16T21:05:47.398Z,6.10
2023-06-16T21:07:49.678Z,6.20
2023-06-16T21:09:51.814Z,5.68
2023-06-16T21:11:53.892Z,5.50
2023-06-16T21:13:56.012Z,5.35
2023-06-16T21:16:12.509Z,5.60
2023-06-16T21:18:16.107Z,5.57
2023-06-16T21:20:20.348Z,4.80
2023-06-16T21:22:22.928Z,5.57
2023-06-16T21:24:28.058Z,5.85
2023-06-16T21:26:30.335Z,5.78
2023-06-16T21:28:32.530Z,6.40
2023-06-16T21:30:34.580Z,5.80
2023-06-16T21:32:36.762Z,5.70
2023-06-16T21:34:38.891Z,5.88
2023-06-16T21:36:42.238Z,5.93
2023-06-16T21:38:45.809Z,5.90
2023-06-16T21:40:48.060Z,5.65
2023-06-16T21:42:50.063Z,5.13
2023-06-16T21:44:52.127Z,5.90
2023-06-16T21:46:54.249Z,5.38
2023-06-16T21:48:56.280Z,5.53
2023-06-16T21:50:58.273Z,5.60
2023-06-16T21:53:01.628Z,5.55
2023-06-16T21:55:04.566Z,5.20
2023-06-16T21:57:07.549Z,5.50
2023-06-16T21:59:09.718Z,5.03
2023-06-16T22:01:12.786Z,5.22
2023-06-16T22:03:17.893Z,5.00
2023-06-16T22:05:21.010Z,5.28
2023-06-16T22:07:24.183Z,5.13
2023-06-16T22:09:27.595Z,5.22
2023-06-16T22:11:29.620Z,5.53
2023-06-16T22:13:34.117Z,4.72
2023-06-16T22:15:36.788Z,4.53
2023-06-16T22:17:39.588Z,4.90
2023-06-16T22:19:42.944Z,4.22
2023-06-16T22:21:45.535Z,5.68
2023-06-16T22:23:47.802Z,4.72
2023-06-16T22:25:51.537Z,5.05
2023-06-16T22:27:54.079Z,5.05
2023-06-16T22:29:57.593Z,4.38
2023-06-16T22:31:59.699Z,4.47
2023-06-16T22:34:01.757Z,5.10
2023-06-16T22:36:04.536Z,4.78
2023-06-16T22:38:06.690Z,4.45
2023-06-16T22:40:09.876Z,5.22
2023-06-16T22:42:13.447Z,4.60
2023-06-16T22:44:15.456Z,4.88
2023-06-16T22:46:17.551Z,4.78
2023-06-16T22:48:19.546Z,4.55
2023-06-16T22:50:22.061Z,5.22
2023-06-16T22:52:24.241Z,4.18
2023-06-16T22:54:27.213Z,4.80
2023-06-16T22:56:29.455Z,4.30
2023-06-16T22:58:33.172Z,3.92
2023-06-16T23:00:36.067Z,4.10
2023-06-16T23:02:38.502Z,4.10
2023-06-16T23:04:40.872Z,4.03
2023-06-16T23:06:42.907Z,3.85
2023-06-16T23:08:48.231Z,3.90
2023-06-16T23:10:50.346Z,4.10
2023-06-16T23:12:52.400Z,4.13
2023-06-16T23:14:56.026Z,3.33
2023-06-16T23:16:58.014Z,3.97
2023-06-16T23:19:00.049Z,4.32
2023-06-16T23:21:02.776Z,3.88
2023-06-16T23:23:05.387Z,4.10
2023-06-16T23:25:08.829Z,3.92
2023-06-16T23:27:11.513Z,4.20
2023-06-16T23:29:17.040Z,4.03
2023-06-16T23:31:21.098Z,4.75
2023-06-16T23:33:26.686Z,4.38
2023-06-16T23:35:28.661Z,5.00
2023-06-16T23:37:31.227Z,5.53
2023-06-16T23:39:33.223Z,5.78
2023-06-16T23:41:36.097Z,6.57
2023-06-16T23:43:38.146Z,5.80
2023-06-16T23:45:41.684Z,6.82
2023-06-16T23:47:46.022Z,6.75
2023-06-16T23:49:48.095Z,7.72
2023-06-16T23:51:50.505Z,8.18
2023-06-16T23:53:52.729Z,8.27
2023-06-16T23:55:54.818Z,8.10
2023-06-16T23:57:57.801Z,9.10
2023-06-16T23:59:59.817Z,7.70
